Time;durP1;ratioP1;P1;durP2;ratioP2;P2;SDS_P1;SDS_P2;PMS_P1;PMS_P2;Temp;Humidity;BMP_temperature;BMP_pressure;BME280_temperature;BME280_humidity;BME280_pressure;Samples;Min_cycle;Max_cycle;Signal;HPM_P1;HPM_P2
2022/08/15 00:01:01;;;;;;;8.77;6.22;;;;;;;;;;5042045;28;20059;-71
2022/08/15 00:03:39;;;;;;;8.18;6.13;;;;;;;;;;5041801;28;20094;-73
2022/08/15 00:06:09;;;;;;;12.65;7.57;;;;;;;;;;5042132;28;20148;-71
2022/08/15 00:08:40;;;;;;;9.63;7.10;;;;;;;;;;5042000;28;20052;-70
2022/08/15 00:11:10;;;;;;;9.50;7.07;;;;;;;;;;5040871;28;20048;-70
2022/08/15 00:13:37;;;;;;;11.43;6.78;;;;;;;;;;5041678;28;20510;-71
2022/08/15 00:16:04;;;;;;;10.95;6.82;;;;;;;;;;5040601;28;20148;-71
2022/08/15 00:18:30;;;;;;;7.80;5.65;;;;;;;;;;5041086;28;20052;-71
2022/08/15 00:20:55;;;;;;;7.45;5.38;;;;;;;;;;5041707;28;20082;-70
2022/08/15 00:23:26;;;;;;;7.35;5.22;;;;;;;;;;5042043;28;20041;-71
2022/08/15 00:25:55;;;;;;;7.15;5.20;;;;;;;;;;5041327;28;20045;-70
2022/08/15 00:28:21;;;;;;;5.60;4.93;;;;;;;;;;5040416;28;20061;-70
2022/08/15 00:30:47;;;;;;;5.60;4.65;;;;;;;;;;5040895;28;20036;-70
2022/08/15 00:33:14;;;;;;;7.65;4.53;;;;;;;;;;5041573;28;20408;-71
2022/08/15 00:35:41;;;;;;;5.38;4.18;;;;;;;;;;5040810;28;20380;-70
2022/08/15 00:38:09;;;;;;;8.13;4.80;;;;;;;;;;5039835;28;20152;-71
2022/08/15 00:41:39;;;;;;;6.25;4.28;;;;;;;;;;5041091;28;20053;-71
2022/08/15 00:43:23;;;;;;;5.18;4.25;;;;;;;;;;5039684;28;20039;-70
2022/08/15 00:45:49;;;;;;;4.50;4.10;;;;;;;;;;5040327;28;20574;-69
2022/08/15 00:51:02;;;;;;;4.43;4.00;;;;;;;;;;5040352;28;20083;-72
2022/08/15 00:53:28;;;;;;;4.78;4.10;;;;;;;;;;5039271;28;20055;-74
2022/08/15 00:55:56;;;;;;;11.23;4.50;;;;;;;;;;5039831;28;20048;-71
2022/08/15 00:58:22;;;;;;;5.05;4.10;;;;;;;;;;5040127;28;20480;-70
2022/08/15 01:00:48;;;;;;;4.80;3.90;;;;;;;;;;5039596;28;20109;-70
2022/08/15 01:03:20;;;;;;;4.68;4.28;;;;;;;;;;5038926;28;20156;-71
2022/08/15 01:05:50;;;;;;;4.15;3.75;;;;;;;;;;5040525;28;20048;-71
2022/08/15 01:08:16;;;;;;;4.32;3.78;;;;;;;;;;5040825;28;20102;-70
2022/08/15 01:10:43;;;;;;;4.30;3.75;;;;;;;;;;5039224;28;20202;-71
2022/08/15 01:13:09;;;;;;;4.03;3.58;;;;;;;;;;5039901;28;20116;-72
2022/08/15 01:15:35;;;;;;;3.70;3.40;;;;;;;;;;5040756;28;20041;-72
2022/08/15 01:18:01;;;;;;;4.25;3.50;;;;;;;;;;5039147;28;20597;-71
2022/08/15 01:20:30;;;;;;;4.13;3.35;;;;;;;;;;5039456;28;20041;-72
2022/08/15 01:23:03;;;;;;;5.20;3.38;;;;;;;;;;5039473;28;20087;-70
2022/08/15 01:25:53;;;;;;;6.22;3.35;;;;;;;;;;5038430;28;20163;-70
2022/08/15 01:28:24;;;;;;;6.55;3.25;;;;;;;;;;5038851;28;20053;-72
2022/08/15 01:31:02;;;;;;;6.53;3.53;;;;;;;;;;5022565;28;20124;-71
2022/08/15 01:33:31;;;;;;;3.72;3.42;;;;;;;;;;5038481;28;21051;-69
2022/08/15 01:35:59;;;;;;;5.05;3.33;;;;;;;;;;5038810;28;20119;-70
2022/08/15 01:38:47;;;;;;;6.85;3.28;;;;;;;;;;5039071;28;20052;-71
2022/08/15 01:41:30;;;;;;;4.55;3.35;;;;;;;;;;5040361;28;20048;-70
2022/08/15 01:43:59;;;;;;;5.63;3.30;;;;;;;;;;5038448;28;20280;-70
2022/08/15 01:46:30;;;;;;;4.47;3.50;;;;;;;;;;5039575;28;20590;-72
2022/08/15 01:49:08;;;;;;;5.25;3.58;;;;;;;;;;5036448;28;20141;-71
2022/08/15 01:51:34;;;;;;;4.90;3.42;;;;;;;;;;5037410;28;20140;-69
2022/08/15 01:54:12;;;;;;;7.30;3.30;;;;;;;;;;5037793;28;20049;-71
2022/08/15 01:56:42;;;;;;;4.47;4.07;;;;;;;;;;5037305;28;20051;-69
2022/08/15 01:59:14;;;;;;;5.07;2.90;;;;;;;;;;5037770;28;20041;-71
2022/08/15 02:01:43;;;;;;;4.18;3.47;;;;;;;;;;5037494;28;20049;-72
2022/08/15 02:04:10;;;;;;;4.85;3.13;;;;;;;;;;5054143;28;20049;-69
2022/08/15 02:06:36;;;;;;;4.32;3.63;;;;;;;;;;5039533;28;20461;-71
2022/08/15 02:09:13;;;;;;;3.53;3.22;;;;;;;;;;5037187;28;20533;-70
2022/08/15 02:11:39;;;;;;;5.35;3.17;;;;;;;;;;5041259;28;20056;-70
2022/08/15 02:14:08;;;;;;;5.90;3.38;;;;;;;;;;5041186;28;20044;-70
2022/08/15 02:16:36;;;;;;;5.50;3.50;;;;;;;;;;5041290;28;20044;-71
2022/08/15 02:19:04;;;;;;;4.22;3.83;;;;;;;;;;5042051;28;20045;-70
2022/08/15 02:21:32;;;;;;;6.60;3.50;;;;;;;;;;5042956;28;20052;-72
2022/08/15 02:23:58;;;;;;;3.40;3.10;;;;;;;;;;5041531;28;20061;-70
2022/08/15 02:26:24;;;;;;;4.47;3.45;;;;;;;;;;5042497;28;20048;-70
2022/08/15 02:28:50;;;;;;;4.72;3.40;;;;;;;;;;5040592;28;20048;-70
2022/08/15 02:31:19;;;;;;;7.03;3.75;;;;;;;;;;5040295;28;20041;-73
2022/08/15 02:33:52;;;;;;;6.88;3.30;;;;;;;;;;5040664;28;20497;-70
2022/08/15 02:36:18;;;;;;;3.83;3.42;;;;;;;;;;5041143;28;20033;-70
2022/08/15 02:38:45;;;;;;;4.03;3.60;;;;;;;;;;5041050;28;20573;-70
2022/08/15 02:41:20;;;;;;;4.53;3.38;;;;;;;;;;5040254;28;20045;-71
2022/08/15 02:43:46;;;;;;;5.15;4.03;;;;;;;;;;5040429;28;21052;-72
2022/08/15 02:46:16;;;;;;;4.65;4.07;;;;;;;;;;5040749;28;20049;-69
2022/08/15 02:48:48;;;;;;;4.53;4.13;;;;;;;;;;5040402;28;20045;-72
2022/08/15 02:51:17;;;;;;;4.97;4.00;;;;;;;;;;5004654;28;1040273;-70
2022/08/15 02:53:45;;;;;;;7.85;3.95;;;;;;;;;;5025003;28;20059;-71
2022/08/15 02:56:11;;;;;;;7.53;4.10;;;;;;;;;;5042096;28;20146;-72
2022/08/15 02:58:37;;;;;;;4.80;3.97;;;;;;;;;;5041758;28;20411;-72
2022/08/15 03:01:08;;;;;;;6.65;4.20;;;;;;;;;;5041653;28;20446;-71
2022/08/15 03:03:38;;;;;;;5.40;4.20;;;;;;;;;;5040687;28;20051;-70
2022/08/15 03:06:10;;;;;;;4.55;3.83;;;;;;;;;;5041748;28;20503;-71
2022/08/15 03:08:38;;;;;;;5.55;4.22;;;;;;;;;;5041807;28;20049;-70
2022/08/15 03:11:06;;;;;;;6.43;4.07;;;;;;;;;;5041755;28;20040;-72
2022/08/15 03:13:34;;;;;;;4.10;3.67;;;;;;;;;;5040356;28;20060;-70
2022/08/15 03:16:04;;;;;;;4.15;3.70;;;;;;;;;;5041649;28;20625;-71
2022/08/15 03:18:33;;;;;;;;;;;;;;;;;;5043443;28;20522;-71
2022/08/15 03:21:05;;;;;;;5.03;3.42;;;;;;;;;;5041000;28;19917;-70
2022/08/15 03:23:32;;;;;;;4.78;3.45;;;;;;;;;;5041008;28;20041;-71
2022/08/15 03:26:01;;;;;;;6.72;3.40;;;;;;;;;;5040958;28;20149;-72
2022/08/15 03:28:31;;;;;;;6.43;3.13;;;;;;;;;;5041343;28;20207;-71
2022/08/15 03:31:04;;;;;;;4.13;2.75;;;;;;;;;;5040887;28;20113;-71
2022/08/15 03:33:32;;;;;;;4.43;2.97;;;;;;;;;;5040456;28;20072;-70
2022/08/15 03:35:59;;;;;;;4.07;3.08;;;;;;;;;;5040179;28;20045;-71
2022/08/15 03:38:25;;;;;;;6.35;2.80;;;;;;;;;;5040689;28;20048;-71
2022/08/15 03:40:51;;;;;;;2.70;2.50;;;;;;;;;;5040516;28;20056;-72
2022/08/15 03:43:27;;;;;;;3.03;2.30;;;;;;;;;;5024310;28;20051;-72
2022/08/15 03:45:58;;;;;;;3.88;2.60;;;;;;;;;;5023296;28;20049;-70
2022/08/15 03:48:29;;;;;;;4.05;2.67;;;;;;;;;;5037031;28;20716;-71
2022/08/15 03:50:58;;;;;;;5.03;2.65;;;;;;;;;;5041820;28;20859;-72
2022/08/15 03:53:36;;;;;;;7.93;3.00;;;;;;;;;;5040344;28;20095;-71
2022/08/15 03:56:05;;;;;;;4.68;2.80;;;;;;;;;;5007779;28;20048;-71
2022/08/15 03:58:34;;;;;;;6.82;2.72;;;;;;;;;;5037061;28;20742;-72
2022/08/15 04:01:00;;;;;;;5.80;2.60;;;;;;;;;;5039777;28;20119;-71
2022/08/15 04:03:29;;;;;;;4.40;2.22;;;;;;;;;;5040323;28;20025;-71
2022/08/15 04:06:00;;;;;;;4.32;2.65;;;;;;;;;;5039895;28;20045;-71
2022/08/15 04:08:31;;;;;;;4.47;2.78;;;;;;;;;;5039522;28;20083;-71
2022/08/15 04:11:01;;;;;;;2.83;2.60;;;;;;;;;;5040580;28;20131;-71
2022/08/15 04:13:27;;;;;;;3.78;2.30;;;;;;;;;;5040266;28;20060;-71
2022/08/15 04:15:59;;;;;;;7.15;3.03;;;;;;;;;;5040483;28;20055;-70
2022/08/15 04:18:25;;;;;;;3.60;2.35;;;;;;;;;;5041444;28;20071;-72
2022/08/15 04:20:55;;;;;;;6.10;2.38;;;;;;;;;;5039103;28;20085;-71
2022/08/15 04:23:21;;;;;;;4.90;2.17;;;;;;;;;;5039823;28;20067;-70
2022/08/15 04:25:46;;;;;;;2.50;2.30;;;;;;;;;;5040036;28;20063;-70
2022/08/15 04:28:15;;;;;;;3.58;2.33;;;;;;;;;;5039613;28;20124;-71
2022/08/15 04:30:44;;;;;;;2.65;2.25;;;;;;;;;;5039003;28;20411;-71
2022/08/15 04:33:23;;;;;;;3.22;2.40;;;;;;;;;;5038424;28;20098;-71
2022/08/15 04:36:01;;;;;;;3.17;2.58;;;;;;;;;;5039793;28;20518;-71
2022/08/15 04:38:28;;;;;;;5.25;2.45;;;;;;;;;;5039783;28;20126;-71
2022/08/15 04:40:54;;;;;;;4.05;2.60;;;;;;;;;;5039901;28;20041;-71
2022/08/15 04:43:22;;;;;;;6.63;2.30;;;;;;;;;;5038906;28;20106;-71
2022/08/15 04:45:51;;;;;;;5.75;2.58;;;;;;;;;;5038658;28;20063;-71
2022/08/15 04:48:18;;;;;;;6.00;2.60;;;;;;;;;;5039522;28;20090;-72
2022/08/15 04:50:46;;;;;;;4.43;2.38;;;;;;;;;;5040186;28;20041;-71
2022/08/15 04:53:14;;;;;;;3.35;2.30;;;;;;;;;;5021675;28;20052;-71
2022/08/15 04:55:42;;;;;;;4.47;2.45;;;;;;;;;;5039674;28;20051;-71
2022/08/15 04:58:10;;;;;;;3.50;2.63;;;;;;;;;;5039297;28;20040;-71
2022/08/15 05:00:40;;;;;;;2.50;2.30;;;;;;;;;;5038709;28;20845;-71
2022/08/15 05:03:16;;;;;;;4.00;2.30;;;;;;;;;;5040527;28;20040;-72
2022/08/15 05:05:48;;;;;;;6.15;2.40;;;;;;;;;;5038256;28;20048;-72
2022/08/15 05:08:15;;;;;;;7.10;2.28;;;;;;;;;;5039059;28;20124;-71
2022/08/15 05:10:51;;;;;;;4.22;2.22;;;;;;;;;;5038638;28;20125;-71
2022/08/15 05:13:20;;;;;;;3.17;2.33;;;;;;;;;;5037861;28;20044;-71
2022/08/15 05:15:47;;;;;;;6.00;2.38;;;;;;;;;;5038137;28;20128;-71
2022/08/15 05:18:14;;;;;;;4.55;2.40;;;;;;;;;;5038762;28;20041;-71
2022/08/15 05:20:41;;;;;;;8.65;2.40;;;;;;;;;;5039265;28;20099;-72
2022/08/15 05:23:10;;;;;;;2.22;2.03;;;;;;;;;;5039433;28;20041;-71
2022/08/15 05:25:49;;;;;;;6.25;2.10;;;;;;;;;;5038091;28;20037;-71
2022/08/15 05:28:16;;;;;;;;;;;;;;;;;;5039548;28;20410;-69
2022/08/15 05:30:43;;;;;;;4.40;2.20;;;;;;;;;;5021771;28;19931;-69
2022/08/15 05:33:14;;;;;;;3.03;2.10;;;;;;;;;;5055534;28;20491;-72
2022/08/15 05:35:43;;;;;;;3.55;1.95;;;;;;;;;;5021810;28;20571;-72
2022/08/15 05:38:14;;;;;;;5.57;1.90;;;;;;;;;;5037469;28;20048;-72
2022/08/15 05:41:00;;;;;;;3.80;2.13;;;;;;;;;;5038024;28;20110;-73
2022/08/15 05:43:36;;;;;;;2.92;2.17;;;;;;;;;;5036327;28;20068;-71
2022/08/15 05:46:21;;;;;;;2.95;2.10;;;;;;;;;;5037541;28;20060;-69
2022/08/15 05:49:00;;;;;;;2.42;1.70;;;;;;;;;;5037460;28;20053;-70
2022/08/15 05:51:46;;;;;;;2.28;2.08;;;;;;;;;;5039024;28;20049;-72
2022/08/15 05:54:22;;;;;;;5.82;2.10;;;;;;;;;;5006984;28;20041;-69
2022/08/15 05:56:54;;;;;;;5.18;2.47;;;;;;;;;;5037800;28;20048;-70
2022/08/15 05:59:29;;;;;;;3.00;2.25;;;;;;;;;;5037169;28;20418;-70
2022/08/15 06:02:10;;;;;;;5.03;2.25;;;;;;;;;;5037423;28;20403;-72
2022/08/15 06:04:47;;;;;;;3.75;1.63;;;;;;;;;;5038306;28;20040;-71
2022/08/15 06:07:15;;;;;;;2.72;2.00;;;;;;;;;;5038232;28;20079;-73
2022/08/15 06:09:50;;;;;;;2.88;2.00;;;;;;;;;;5036857;28;20045;-73
2022/08/15 06:12:34;;;;;;;6.03;2.38;;;;;;;;;;5038313;28;20072;-73
2022/08/15 06:15:17;;;;;;;3.22;1.90;;;;;;;;;;5037779;28;20495;-74
2022/08/15 06:17:54;;;;;;;4.57;2.22;;;;;;;;;;5037225;28;20057;-72
2022/08/15 06:20:25;;;;;;;3.20;1.73;;;;;;;;;;5037114;28;20049;-72
2022/08/15 06:23:05;;;;;;;2.95;1.90;;;;;;;;;;5038249;28;20053;-72
2022/08/15 06:25:38;;;;;;;7.40;2.10;;;;;;;;;;5020566;28;20041;-72
2022/08/15 06:28:33;;;;;;;3.50;1.83;;;;;;;;;;5021345;28;20577;-73
2022/08/15 06:31:31;;;;;;;5.57;1.73;;;;;;;;;;5037676;28;20048;-73
2022/08/15 06:34:16;;;;;;;5.15;2.47;;;;;;;;;;5036407;28;20134;-69
2022/08/15 06:36:58;;;;;;;2.92;1.60;;;;;;;;;;5054638;28;20075;-74
2022/08/15 06:39:43;;;;;;;2.92;1.90;;;;;;;;;;5054023;28;20052;-72
2022/08/15 06:42:36;;;;;;;1.50;1.38;;;;;;;;;;5005117;28;20041;-68
2022/08/15 06:45:13;;;;;;;1.55;1.23;;;;;;;;;;5031702;28;20476;-71
2022/08/15 06:47:38;;;;;;;2.22;1.40;;;;;;;;;;5037289;28;20052;-73
2022/08/15 06:50:33;;;;;;;3.13;1.52;;;;;;;;;;5037598;28;20049;-69
2022/08/15 06:53:08;;;;;;;3.55;1.50;;;;;;;;;;5030334;28;20055;-72
2022/08/15 06:55:56;;;;;;;2.00;1.30;;;;;;;;;;5037999;28;20112;-75
2022/08/15 06:58:47;;;;;;;3.63;1.40;;;;;;;;;;5042373;28;20141;-71
2022/08/15 07:01:37;;;;;;;1.42;1.20;;;;;;;;;;5040970;28;20104;-69
2022/08/15 07:04:15;;;;;;;2.97;1.50;;;;;;;;;;5023465;28;20076;-70
2022/08/15 07:06:49;;;;;;;2.17;1.27;;;;;;;;;;5040626;28;20842;-74
2022/08/15 07:09:37;;;;;;;5.55;1.20;;;;;;;;;;5040119;28;20055;-72
2022/08/15 07:12:31;;;;;;;4.22;1.20;;;;;;;;;;5024289;28;20044;-70
2022/08/15 07:15:36;;;;;;;2.20;1.20;;;;;;;;;;5006312;28;20147;-73
2022/08/15 07:18:08;;;;;;;3.17;1.15;;;;;;;;;;5007329;28;20158;-72
2022/08/15 07:20:36;;;;;;;1.77;1.30;;;;;;;;;;5040363;28;20498;-71
2022/08/15 07:23:22;;;;;;;2.58;1.33;;;;;;;;;;5040682;28;20714;-71
2022/08/15 07:25:51;;;;;;;2.50;1.13;;;;;;;;;;5039007;28;20056;-74
2022/08/15 07:28:20;;;;;;;2.63;1.40;;;;;;;;;;5039839;28;20492;-76
2022/08/15 07:31:16;;;;;;;2.28;1.10;;;;;;;;;;5040953;28;20080;-73
2022/08/15 07:33:50;;;;;;;1.10;1.02;;;;;;;;;;5039998;28;20072;-73
2022/08/15 07:36:28;;;;;;;2.80;1.10;;;;;;;;;;5040566;28;20041;-72
2022/08/15 07:38:55;;;;;;;1.08;1.00;;;;;;;;;;5022977;28;20072;-72
2022/08/15 07:41:29;;;;;;;1.10;1.00;;;;;;;;;;5040306;28;20053;-73
2022/08/15 07:43:59;;;;;;;1.63;1.25;;;;;;;;;;5041737;28;20564;-76
2022/08/15 07:46:34;;;;;;;1.65;1.00;;;;;;;;;;5040212;28;20049;-78
2022/08/15 07:49:07;;;;;;;1.20;1.10;;;;;;;;;;5039196;28;20108;-74
2022/08/15 07:51:57;;;;;;;3.35;1.30;;;;;;;;;;5039511;28;20053;-74
2022/08/15 07:54:45;;;;;;;1.55;1.30;;;;;;;;;;5041132;28;20584;-77
2022/08/15 07:57:35;;;;;;;1.55;1.40;;;;;;;;;;5041756;28;20048;-74
2022/08/15 08:00:17;;;;;;;1.00;1.00;;;;;;;;;;5024128;28;20534;-75
2022/08/15 08:03:00;;;;;;;1.85;1.15;;;;;;;;;;5039020;28;20033;-75
2022/08/15 08:05:31;;;;;;;0.95;0.90;;;;;;;;;;5040699;28;20056;-78
2022/08/15 08:08:00;;;;;;;2.05;1.20;;;;;;;;;;5022481;28;20049;-73
2022/08/15 08:10:47;;;;;;;1.55;1.20;;;;;;;;;;5039621;28;20056;-73
2022/08/15 08:13:35;;;;;;;4.20;1.27;;;;;;;;;;5040526;28;20045;-76
2022/08/15 08:16:19;;;;;;;2.13;1.20;;;;;;;;;;5023121;28;20052;-73
2022/08/15 08:18:54;;;;;;;3.13;1.40;;;;;;;;;;5039223;28;20112;-73
2022/08/15 08:21:40;;;;;;;1.20;1.10;;;;;;;;;;5038779;28;20137;-72
2022/08/15 08:24:15;;;;;;;1.85;1.30;;;;;;;;;;5022900;28;20930;-74
2022/08/15 08:27:01;;;;;;;8.90;1.63;;;;;;;;;;5041716;28;20103;-73
2022/08/15 08:29:51;;;;;;;3.00;1.33;;;;;;;;;;5055554;28;20044;-74
2022/08/15 08:32:59;;;;;;;1.77;1.40;;;;;;;;;;5022418;28;20052;-72
2022/08/15 08:35:47;;;;;;;2.85;1.58;;;;;;;;;;5040427;28;20052;-72
2022/08/15 08:38:27;;;;;;;0.90;0.90;;;;;;;;;;5038097;28;20048;-72
2022/08/15 08:41:28;;;;;;;4.68;1.55;;;;;;;;;;5040623;28;20055;-71
2022/08/15 08:44:23;;;;;;;1.95;1.50;;;;;;;;;;5039439;28;20057;-72
2022/08/15 08:47:11;;;;;;;6.30;1.63;;;;;;;;;;5040053;28;20041;-74
2022/08/15 08:50:00;;;;;;;3.17;1.40;;;;;;;;;;5021379;28;20162;-73
2022/08/15 08:52:52;;;;;;;1.52;1.42;;;;;;;;;;5038961;28;20670;-72
2022/08/15 08:55:23;;;;;;;3.10;1.40;;;;;;;;;;5040061;28;20049;-71
2022/08/15 08:57:58;;;;;;;2.47;1.38;;;;;;;;;;5040859;28;20126;-75
2022/08/15 09:00:32;;;;;;;1.65;1.25;;;;;;;;;;5041823;28;20051;-70
2022/08/15 09:03:18;;;;;;;2.50;1.30;;;;;;;;;;5041688;28;20041;-71
2022/08/15 09:05:53;;;;;;;2.20;1.45;;;;;;;;;;5037837;28;20742;-73
2022/08/15 09:08:39;;;;;;;1.73;1.25;;;;;;;;;;5041217;28;20077;-74
2022/08/15 09:11:22;;;;;;;4.13;1.40;;;;;;;;;;5041556;28;20057;-73
2022/08/15 09:13:49;;;;;;;1.40;1.30;;;;;;;;;;5038449;28;20095;-74
2022/08/15 09:16:35;;;;;;;2.72;1.55;;;;;;;;;;5039047;28;20060;-75
2022/08/15 09:19:14;;;;;;;1.50;1.30;;;;;;;;;;5038282;28;20076;-74
2022/08/15 09:21:42;;;;;;;1.52;1.30;;;;;;;;;;5039493;28;20055;-74
2022/08/15 09:24:09;;;;;;;2.03;1.40;;;;;;;;;;5040626;28;20045;-73
2022/08/15 09:26:35;;;;;;;3.70;1.40;;;;;;;;;;5040507;28;20118;-73
2022/08/15 09:29:25;;;;;;;2.00;1.67;;;;;;;;;;5039965;28;20060;-74
2022/08/15 09:32:24;;;;;;;1.77;1.42;;;;;;;;;;5040231;28;20136;-73
2022/08/15 09:35:08;;;;;;;1.52;1.23;;;;;;;;;;5038491;28;20095;-71
2022/08/15 09:37:58;;;;;;;1.50;1.40;;;;;;;;;;5039359;28;20048;-72
2022/08/15 09:40:28;;;;;;;1.48;1.38;;;;;;;;;;5042315;28;20110;-72
2022/08/15 09:43:07;;;;;;;1.52;1.40;;;;;;;;;;5038311;28;20045;-71
2022/08/15 09:45:57;;;;;;;1.65;1.50;;;;;;;;;;5038421;28;20071;-72
2022/08/15 09:48:33;;;;;;;1.85;1.30;;;;;;;;;;5038225;28;20422;-72
2022/08/15 09:51:16;;;;;;;2.55;1.23;;;;;;;;;;5021465;28;20049;-75
2022/08/15 09:54:04;;;;;;;1.40;1.30;;;;;;;;;;5039075;28;20056;-73
2022/08/15 09:56:32;;;;;;;3.42;1.48;;;;;;;;;;5038429;28;20041;-72
2022/08/15 09:59:14;;;;;;;4.68;1.42;;;;;;;;;;5038885;28;20103;-71
2022/08/15 10:02:21;;;;;;;3.53;1.65;;;;;;;;;;5036739;28;20041;-73
2022/08/15 10:04:49;;;;;;;2.53;1.40;;;;;;;;;;5027548;28;20056;-76
2022/08/15 10:07:15;;;;;;;1.88;1.33;;;;;;;;;;5039255;28;20094;-72
2022/08/15 10:10:04;;;;;;;2.92;1.23;;;;;;;;;;5039286;28;20049;-75
2022/08/15 10:12:32;;;;;;;1.60;1.20;;;;;;;;;;5036753;28;20318;-77
2022/08/15 10:15:22;;;;;;;3.10;1.48;;;;;;;;;;5040205;28;20055;-74
2022/08/15 10:17:47;;;;;;;1.13;1.02;;;;;;;;;;5037926;28;20067;-73
2022/08/15 10:20:16;;;;;;;1.67;1.48;;;;;;;;;;5037625;28;20143;-76
2022/08/15 10:22:57;;;;;;;1.63;1.20;;;;;;;;;;5038426;28;20045;-72
2022/08/15 10:25:22;;;;;;;2.10;1.27;;;;;;;;;;5022271;28;20049;-74
2022/08/15 10:28:08;;;;;;;7.35;1.55;;;;;;;;;;5039005;28;20059;-76
2022/08/15 10:30:41;;;;;;;1.60;1.50;;;;;;;;;;5038200;28;20432;-74
2022/08/15 10:33:32;;;;;;;1.70;1.45;;;;;;;;;;5041539;28;20597;-72
2022/08/15 10:36:16;;;;;;;4.45;1.38;;;;;;;;;;5042839;28;20049;-75
2022/08/15 10:39:16;;;;;;;2.90;1.60;;;;;;;;;;5041392;28;20056;-76
2022/08/15 10:41:51;;;;;;;2.20;1.38;;;;;;;;;;5039312;28;20415;-75
2022/08/15 10:44:42;;;;;;;3.20;1.63;;;;;;;;;;5042043;28;20036;-73
2022/08/15 10:47:32;;;;;;;1.50;1.40;;;;;;;;;;5042785;28;20135;-75
2022/08/15 10:50:03;;;;;;;3.55;1.33;;;;;;;;;;5013107;28;20102;-73
2022/08/15 10:53:05;;;;;;;1.98;1.45;;;;;;;;;;5043390;28;20041;-75
2022/08/15 10:55:33;;;;;;;;;;;;;;;;;;5024568;28;20061;-75
2022/08/15 10:58:23;;;;;;;1.85;1.25;;;;;;;;;;5041290;28;20008;-73
2022/08/15 11:01:06;;;;;;;3.00;1.45;;;;;;;;;;5041372;28;20041;-75
2022/08/15 11:03:41;;;;;;;1.70;1.23;;;;;;;;;;5041012;28;20044;-75
2022/08/15 11:06:13;;;;;;;3.15;1.67;;;;;;;;;;5041206;28;20498;-72
2022/08/15 11:08:55;;;;;;;2.67;1.70;;;;;;;;;;5042491;28;20118;-71
2022/08/15 11:11:24;;;;;;;2.28;1.70;;;;;;;;;;5042446;28;20466;-72
2022/08/15 11:13:56;;;;;;;2.10;1.40;;;;;;;;;;5040925;28;20467;-73
2022/08/15 11:16:47;;;;;;;1.92;1.50;;;;;;;;;;5042008;28;20079;-73
2022/08/15 11:19:32;;;;;;;3.10;1.70;;;;;;;;;;5040683;28;20144;-73
2022/08/15 11:22:01;;;;;;;2.60;1.70;;;;;;;;;;5041724;28;20056;-71
2022/08/15 11:24:37;;;;;;;3.50;1.60;;;;;;;;;;5042393;28;20396;-72
2022/08/15 11:27:14;;;;;;;1.73;1.63;;;;;;;;;;5041162;28;20044;-73
2022/08/15 11:29:40;;;;;;;2.50;1.70;;;;;;;;;;5040170;28;20132;-75
2022/08/15 11:32:07;;;;;;;1.75;1.65;;;;;;;;;;5029021;28;20083;-71
2022/08/15 11:34:39;;;;;;;5.32;1.83;;;;;;;;;;5042915;28;20053;-73
2022/08/15 11:37:16;;;;;;;3.67;2.10;;;;;;;;;;5043711;28;20454;-72
2022/08/15 11:39:52;;;;;;;3.55;1.80;;;;;;;;;;5023704;28;20097;-73
2022/08/15 11:42:20;;;;;;;1.85;1.75;;;;;;;;;;5041227;28;20067;-73
2022/08/15 11:45:33;;;;;;;3.78;1.88;;;;;;;;;;5042031;28;20132;-72
2022/08/15 11:47:59;;;;;;;2.03;1.70;;;;;;;;;;5026786;28;20523;-71
2022/08/15 11:50:40;;;;;;;3.25;1.73;;;;;;;;;;5041256;28;20041;-72
2022/08/15 11:53:10;;;;;;;2.13;1.90;;;;;;;;;;5042115;28;20048;-70
2022/08/15 11:55:35;;;;;;;2.38;1.98;;;;;;;;;;5039778;28;20098;-74
2022/08/15 11:58:13;;;;;;;3.65;1.83;;;;;;;;;;5039848;28;20940;-73
2022/08/15 12:00:43;;;;;;;4.32;2.08;;;;;;;;;;5041858;28;20426;-73
2022/08/15 12:03:32;;;;;;;3.15;2.20;;;;;;;;;;5041081;28;20041;-72
2022/08/15 12:06:20;;;;;;;2.42;1.65;;;;;;;;;;5041452;28;20064;-71
2022/08/15 12:08:48;;;;;;;2.45;1.80;;;;;;;;;;5039589;28;20136;-73
2022/08/15 12:11:13;;;;;;;4.35;1.92;;;;;;;;;;5040292;28;20048;-73
2022/08/15 12:14:04;;;;;;;3.42;1.95;;;;;;;;;;5038498;28;20048;-71
2022/08/15 12:16:40;;;;;;;1.80;1.55;;;;;;;;;;5031633;28;20113;-74
2022/08/15 12:19:25;;;;;;;8.65;2.10;;;;;;;;;;5040422;28;20128;-74
2022/08/15 12:21:51;;;;;;;2.95;2.00;;;;;;;;;;5040402;28;20171;-71
2022/08/15 12:24:29;;;;;;;2.00;1.80;;;;;;;;;;5040247;28;20052;-72
2022/08/15 12:27:01;;;;;;;4.97;2.30;;;;;;;;;;5041209;28;20049;-72
2022/08/15 12:29:28;;;;;;;2.92;1.80;;;;;;;;;;5040888;28;20513;-70
2022/08/15 12:31:54;;;;;;;5.03;1.90;;;;;;;;;;5039925;28;20048;-72
2022/08/15 12:34:23;;;;;;;1.92;1.73;;;;;;;;;;5038847;28;20564;-73
2022/08/15 12:36:50;;;;;;;1.80;1.70;;;;;;;;;;5039611;28;20053;-72
2022/08/15 12:39:17;;;;;;;3.13;1.80;;;;;;;;;;5040359;28;20040;-73
2022/08/15 12:41:48;;;;;;;3.67;2.10;;;;;;;;;;5040384;28;20403;-73
2022/08/15 12:44:23;;;;;;;2.00;1.90;;;;;;;;;;5040995;28;20045;-71
2022/08/15 12:46:49;;;;;;;3.42;1.70;;;;;;;;;;5039689;28;20060;-74
2022/08/15 12:49:16;;;;;;;5.82;2.03;;;;;;;;;;5040780;28;20051;-71
2022/08/15 12:51:41;;;;;;;2.25;1.90;;;;;;;;;;5039872;28;20519;-71
2022/08/15 12:54:07;;;;;;;1.90;1.70;;;;;;;;;;5039479;28;20072;-73
2022/08/15 12:56:32;;;;;;;8.63;2.13;;;;;;;;;;5039578;28;20045;-71
2022/08/15 12:58:58;;;;;;;2.22;1.77;;;;;;;;;;5040193;28;20136;-74
2022/08/15 13:01:24;;;;;;;4.85;1.92;;;;;;;;;;5040121;28;20118;-71
2022/08/15 13:03:51;;;;;;;4.32;1.80;;;;;;;;;;5039716;28;20135;-70
2022/08/15 13:06:24;;;;;;;2.92;1.80;;;;;;;;;;5040674;28;20041;-70
2022/08/15 13:08:50;;;;;;;3.25;1.77;;;;;;;;;;5039128;28;20087;-71
2022/08/15 13:11:15;;;;;;;3.90;1.90;;;;;;;;;;5040429;28;20084;-71
2022/08/15 13:13:41;;;;;;;2.42;2.10;;;;;;;;;;5021163;28;20091;-71
2022/08/15 13:16:09;;;;;;;4.25;1.85;;;;;;;;;;5038853;28;20368;-73
2022/08/15 13:18:36;;;;;;;1.52;1.42;;;;;;;;;;5038573;28;20048;-73
2022/08/15 13:23:51;;;;;;;2.55;1.50;;;;;;;;;;5037904;28;20140;-73
2022/08/15 13:26:18;;;;;;;3.67;1.90;;;;;;;;;;5040168;28;20041;-74
2022/08/15 13:28:46;;;;;;;2.63;1.65;;;;;;;;;;5038134;28;20052;-75
2022/08/15 13:31:16;;;;;;;4.90;1.67;;;;;;;;;;5038867;28;20057;-74
2022/08/15 13:33:42;;;;;;;1.75;1.60;;;;;;;;;;5039282;28;20102;-72
2022/08/15 13:36:12;;;;;;;2.78;1.90;;;;;;;;;;5039956;28;20098;-74
2022/08/15 13:38:41;;;;;;;1.83;1.73;;;;;;;;;;5038560;28;20053;-74
2022/08/15 13:41:08;;;;;;;2.17;1.95;;;;;;;;;;5021147;28;20650;-72
2022/08/15 13:43:35;;;;;;;2.47;1.58;;;;;;;;;;5039192;28;20060;-73
2022/08/15 13:46:01;;;;;;;3.65;1.80;;;;;;;;;;5039010;28;20470;-73
2022/08/15 13:48:35;;;;;;;1.92;1.70;;;;;;;;;;5039454;28;20056;-73
2022/08/15 13:51:02;;;;;;;2.38;1.67;;;;;;;;;;5037801;28;20044;-73
2022/08/15 13:53:28;;;;;;;2.53;1.60;;;;;;;;;;5039469;28;20529;-73
2022/08/15 13:55:54;;;;;;;2.03;1.77;;;;;;;;;;5037435;28;20053;-72
2022/08/15 13:58:19;;;;;;;4.10;1.40;;;;;;;;;;5039197;28;20118;-74
2022/08/15 14:00:46;;;;;;;4.15;1.60;;;;;;;;;;5038357;28;20114;-72
2022/08/15 14:03:13;;;;;;;1.85;1.70;;;;;;;;;;5039168;28;20041;-72
2022/08/15 14:05:39;;;;;;;1.67;1.58;;;;;;;;;;5042189;28;20045;-72
2022/08/15 14:08:04;;;;;;;2.03;1.60;;;;;;;;;;5043621;28;20414;-75
2022/08/15 14:10:30;;;;;;;1.42;1.33;;;;;;;;;;5043303;28;20503;-74
2022/08/15 14:12:55;;;;;;;4.45;1.73;;;;;;;;;;5043242;28;20136;-72
2022/08/15 14:15:21;;;;;;;1.98;1.40;;;;;;;;;;5040586;28;20127;-72
2022/08/15 14:17:47;;;;;;;2.35;1.58;;;;;;;;;;5043265;28;20135;-74
2022/08/15 14:20:18;;;;;;;3.72;1.60;;;;;;;;;;5025783;28;20037;-74
2022/08/15 14:22:47;;;;;;;3.17;1.55;;;;;;;;;;5042736;28;20170;-73
2022/08/15 14:25:14;;;;;;;;;;;;;;;;;;5033201;28;20045;-72
2022/08/15 14:27:44;;;;;;;1.70;1.58;;;;;;;;;;5043180;28;19923;-75
2022/08/15 14:30:12;;;;;;;1.77;1.50;;;;;;;;;;5040382;28;20052;-73
2022/08/15 14:32:38;;;;;;;2.20;1.60;;;;;;;;;;5041937;28;20060;-73
2022/08/15 14:35:05;;;;;;;1.77;1.55;;;;;;;;;;5040853;28;20036;-74
2022/08/15 14:37:31;;;;;;;3.67;1.40;;;;;;;;;;5043884;28;20131;-75
2022/08/15 14:39:58;;;;;;;1.75;1.42;;;;;;;;;;5044275;28;20586;-74
2022/08/15 14:42:24;;;;;;;1.88;1.73;;;;;;;;;;5041296;28;20049;-74
2022/08/15 14:44:50;;;;;;;2.97;1.52;;;;;;;;;;5042085;28;20037;-74
2022/08/15 14:47:18;;;;;;;1.27;1.17;;;;;;;;;;5038650;28;20033;-73
2022/08/15 14:49:47;;;;;;;2.88;1.40;;;;;;;;;;5041069;28;20048;-75
2022/08/15 14:52:15;;;;;;;1.90;1.70;;;;;;;;;;5041590;28;20040;-75
2022/08/15 14:54:42;;;;;;;3.38;1.80;;;;;;;;;;5040069;28;20163;-73
2022/08/15 14:57:09;;;;;;;1.50;1.40;;;;;;;;;;5039387;28;20111;-75
2022/08/15 14:59:36;;;;;;;1.92;1.45;;;;;;;;;;5041199;28;20052;-78
2022/08/15 15:02:06;;;;;;;2.95;1.20;;;;;;;;;;5038648;28;20055;-73
2022/08/15 15:04:31;;;;;;;2.03;1.60;;;;;;;;;;5024079;28;20466;-75
2022/08/15 15:06:59;;;;;;;3.00;1.67;;;;;;;;;;5039586;28;20083;-74
2022/08/15 15:09:24;;;;;;;4.30;1.33;;;;;;;;;;5040404;28;20049;-73
2022/08/15 15:11:50;;;;;;;1.23;1.13;;;;;;;;;;5022754;28;20126;-75
2022/08/15 15:14:17;;;;;;;2.63;1.48;;;;;;;;;;5040209;28;20578;-73
2022/08/15 15:16:44;;;;;;;1.85;1.30;;;;;;;;;;5039836;28;20045;-75
2022/08/15 15:19:12;;;;;;;1.92;1.27;;;;;;;;;;5056247;28;20044;-73
2022/08/15 15:21:38;;;;;;;1.83;1.40;;;;;;;;;;5042543;28;21067;-73
2022/08/15 15:24:06;;;;;;;5.47;1.55;;;;;;;;;;5039819;28;20171;-73
2022/08/15 15:26:31;;;;;;;1.48;1.38;;;;;;;;;;5023505;28;20422;-74